Milltown, South Dakota
Current Conditions -  °F | °C
As of 3:53 PM on Wednesday 28 Jan 2015 (Local Time) from KMHE Reporting Station
Clear Clear  
Wind Chill: 40°   Ceiling: Unl
Heat Index: 47°   Visibility: 10mi
Dew Point: 38°   Wind: 16mph
Humidity: 71%   Direction: 330°NNW
Pressure: 29.72"   Gusts: 23mph
Location:  43.4018°N, 97.9102°W
Report Text: KMHE 282153Z AUTO 33014G20KT 10SM CLR 08/03 A2972 RMK AO2 SLP073 T00830033
Loading
Personal Weather Stations






























Interactive Weather Map New forecast layout! Learn more

10-Day Weather Forecast

Advertisements
Track Severe Weather on mobile